createdAt,value
2023-02-04T00:01:56.130Z,101078.72
2023-02-04T00:04:22.915Z,101072.81
2023-02-04T00:06:49.740Z,101085.63
2023-02-04T00:09:16.548Z,101075.34
2023-02-04T00:11:43.353Z,101067.63
2023-02-04T00:14:10.797Z,101068.09
2023-02-04T00:16:38.939Z,101078.06
2023-02-04T00:19:05.660Z,101076.00
2023-02-04T00:21:32.638Z,101082.25
2023-02-04T00:23:59.382Z,101094.53
2023-02-04T00:26:26.112Z,101074.88
2023-02-04T00:28:53.154Z,101083.09
2023-02-04T00:31:20.021Z,101079.41
2023-02-04T00:33:48.193Z,101085.13
2023-02-04T00:36:14.940Z,101075.53
2023-02-04T00:38:41.973Z,101076.00
2023-02-04T00:41:08.976Z,101079.72
2023-02-04T00:43:35.723Z,101076.00
2023-02-04T00:46:05.508Z,101076.88
2023-02-04T00:48:32.308Z,101075.34
2023-02-04T00:51:00.432Z,101088.47
2023-02-04T00:53:27.212Z,101083.78
2023-02-04T00:55:53.994Z,101091.69
2023-02-04T00:58:21.545Z,101083.63
2023-02-04T01:00:48.548Z,101093.38
2023-02-04T01:03:15.422Z,101091.53
2023-02-04T01:05:42.266Z,101081.59
2023-02-04T01:08:11.326Z,101083.47
2023-02-04T01:10:38.299Z,101091.38
2023-02-04T01:13:05.671Z,101090.34
2023-02-04T01:15:32.509Z,101101.13
2023-02-04T01:17:59.387Z,101097.56
2023-02-04T01:20:26.744Z,101107.53
2023-02-04T01:22:53.608Z,101108.19
2023-02-04T01:25:21.863Z,101106.19
2023-02-04T01:27:48.814Z,101101.28
2023-02-04T01:30:16.587Z,101105.81
2023-02-04T01:32:43.482Z,101109.38
2023-02-04T01:35:10.237Z,101116.44
2023-02-04T01:37:36.999Z,101123.16
2023-02-04T01:40:04.941Z,101118.09
2023-02-04T01:42:33.254Z,101117.28
2023-02-04T01:45:00.652Z,101119.78
2023-02-04T01:47:27.659Z,101119.63
2023-02-04T01:49:55.556Z,101129.72
2023-02-04T01:52:23.995Z,101127.38
2023-02-04T01:54:52.528Z,101129.03
2023-02-04T01:57:19.829Z,101137.13
2023-02-04T01:59:56.181Z,101137.59
2023-02-04T02:02:45.680Z,101135.56
2023-02-04T02:05:20.022Z,101139.63
2023-02-04T02:07:48.616Z,101138.94
2023-02-04T02:10:17.392Z,101132.38
2023-02-04T02:12:45.916Z,101128.03
2023-02-04T02:15:15.712Z,101134.91
2023-02-04T02:17:44.141Z,101142.34
2023-02-04T02:20:16.462Z,101149.38
2023-02-04T02:22:59.516Z,101149.38
2023-02-04T02:25:27.782Z,101140.13
2023-02-04T02:27:57.041Z,101126.50
2023-02-04T02:30:24.771Z,101133.25
2023-02-04T02:32:52.845Z,101136.94
2023-02-04T02:35:21.255Z,101139.63
2023-02-04T02:37:49.783Z,101145.19
2023-02-04T02:40:17.533Z,101151.41
2023-02-04T02:42:51.671Z,101151.06
2023-02-04T02:45:25.232Z,101159.84
2023-02-04T02:47:53.440Z,101159.13
2023-02-04T02:50:24.592Z,101169.75
2023-02-04T02:52:52.592Z,101164.38
2023-02-04T02:55:24.587Z,101168.25
2023-02-04T02:57:56.227Z,101171.25
2023-02-04T03:00:27.057Z,101172.44
2023-02-04T03:03:01.832Z,101166.53
2023-02-04T03:05:35.168Z,101177.56
2023-02-04T03:08:05.173Z,101175.28
2023-02-04T03:10:32.457Z,101178.75
2023-02-04T03:13:01.039Z,101187.66
2023-02-04T03:15:29.695Z,101182.44
2023-02-04T03:17:58.061Z,101191.38
2023-02-04T03:20:28.312Z,101192.72
2023-02-04T03:22:57.409Z,101205.88
2023-02-04T03:25:25.328Z,101206.91
2023-02-04T03:27:53.114Z,101209.59
2023-02-04T03:30:22.818Z,101218.34
2023-02-04T03:32:50.501Z,101221.50
2023-02-04T03:35:18.081Z,101236.50
2023-02-04T03:37:45.099Z,101229.28
2023-02-04T03:40:12.919Z,101229.28
2023-02-04T03:42:40.044Z,101232.63
2023-02-04T03:45:07.840Z,101235.34
2023-02-04T03:47:36.059Z,101242.75
2023-02-04T03:50:03.182Z,101243.41
2023-02-04T03:52:30.034Z,101245.78
2023-02-04T03:54:56.938Z,101252.34
2023-02-04T03:57:23.762Z,101254.34
2023-02-04T03:59:50.560Z,101256.38
2023-02-04T04:02:17.399Z,101252.72
2023-02-04T04:04:45.530Z,101257.78
2023-02-04T04:07:12.528Z,101264.28
2023-02-04T04:09:39.411Z,101253.03
2023-02-04T04:12:06.364Z,101256.84
2023-02-04T04:14:33.425Z,101266.09
2023-02-04T04:17:00.212Z,101263.22
2023-02-04T04:19:27.702Z,101263.53
2023-02-04T04:21:55.920Z,101265.53
2023-02-04T04:24:23.038Z,101267.38
2023-02-04T04:26:49.806Z,101277.78
2023-02-04T04:29:16.582Z,101272.41
2023-02-04T04:31:43.451Z,101280.16
2023-02-04T04:34:10.419Z,101281.44
2023-02-04T04:36:37.902Z,101286.47
2023-02-04T04:39:06.180Z,101291.16
2023-02-04T04:41:32.952Z,101296.00
2023-02-04T04:43:59.681Z,101307.06
2023-02-04T04:46:26.657Z,101310.75
2023-02-04T04:48:53.625Z,101316.44
2023-02-04T04:51:20.636Z,101316.13
2023-02-04T04:53:47.418Z,101324.19
2023-02-04T04:56:15.603Z,101320.66
2023-02-04T04:58:42.363Z,101315.28
2023-02-04T05:01:09.294Z,101322.88
2023-02-04T05:03:36.109Z,101320.91
2023-02-04T05:06:03.212Z,101316.38
2023-02-04T05:08:30.008Z,101316.38
2023-02-04T05:10:56.832Z,101320.59
2023-02-04T05:13:24.993Z,101322.56
2023-02-04T05:15:51.971Z,101320.59
2023-02-04T05:18:18.729Z,101327.28
2023-02-04T05:20:45.817Z,101334.19
2023-02-04T05:23:12.685Z,101340.41
2023-02-04T05:25:39.542Z,101336.34
2023-02-04T05:28:06.374Z,101332.97
2023-02-04T05:30:35.110Z,101333.13
2023-02-04T05:33:02.225Z,101336.47
2023-02-04T05:35:28.970Z,101327.44
2023-02-04T05:37:55.845Z,101324.59
2023-02-04T05:40:22.639Z,101320.91
2023-02-04T05:42:49.445Z,101328.41
2023-02-04T05:45:17.597Z,101323.19
2023-02-04T05:47:45.867Z,101331.97
2023-02-04T05:50:13.593Z,101324.19
2023-02-04T05:52:40.617Z,101334.56
2023-02-04T05:55:10.110Z,101341.72
2023-02-04T05:57:37.425Z,101345.50
2023-02-04T06:00:06.054Z,101358.00
2023-02-04T06:02:38.938Z,101365.53
2023-02-04T06:05:08.188Z,101380.69
2023-02-04T06:07:34.960Z,101382.34
2023-02-04T06:10:01.872Z,101380.53
2023-02-04T06:12:28.799Z,101377.53
2023-02-04T06:14:55.871Z,101384.28
2023-02-04T06:17:22.838Z,101390.53
2023-02-04T06:19:49.861Z,101389.50
2023-02-04T06:22:18.308Z,101393.50
2023-02-04T06:24:47.223Z,101390.13
2023-02-04T06:27:14.248Z,101399.84
2023-02-04T06:29:41.105Z,101401.03
2023-02-04T06:32:07.888Z,101396.81
2023-02-04T06:34:34.719Z,101394.41
2023-02-04T06:37:01.525Z,101390.00
2023-02-04T06:39:30.090Z,101408.16
2023-02-04T06:41:57.183Z,101398.53
2023-02-04T06:44:24.152Z,101406.75
2023-02-04T06:46:50.988Z,101413.81
2023-02-04T06:49:17.814Z,101415.34
2023-02-04T06:51:44.589Z,101416.75
2023-02-04T06:54:11.684Z,101409.13
2023-02-04T06:56:39.944Z,101402.78
2023-02-04T06:59:08.184Z,101418.75
2023-02-04T07:01:35.183Z,101423.00
2023-02-04T07:04:02.461Z,101421.88
2023-02-04T07:06:29.273Z,101425.56
2023-02-04T07:08:56.286Z,101435.47
2023-02-04T07:11:23.082Z,101452.28
2023-02-04T07:13:51.319Z,101461.19
2023-02-04T07:16:18.151Z,101471.50
2023-02-04T07:18:44.971Z,101471.00
2023-02-04T07:21:11.852Z,101468.72
2023-02-04T07:23:39.377Z,101477.03
2023-02-04T07:26:12.396Z,101468.53
2023-02-04T07:28:41.197Z,101472.38
2023-02-04T07:31:09.447Z,101473.03
2023-02-04T07:33:36.483Z,101474.91
2023-02-04T07:36:03.737Z,101480.28
2023-02-04T07:38:30.822Z,101481.41
2023-02-04T07:40:57.572Z,101474.50
2023-02-04T07:43:24.874Z,101470.28
2023-02-04T07:45:52.457Z,101486.56
2023-02-04T07:48:20.783Z,101493.63
2023-02-04T07:50:47.670Z,101506.00
2023-02-04T07:53:14.469Z,101508.69
2023-02-04T07:55:41.214Z,101509.22
2023-02-04T07:58:08.002Z,101516.69
2023-02-04T08:00:34.991Z,101512.56
2023-02-04T08:03:01.846Z,101515.78
2023-02-04T08:05:30.219Z,101531.31
2023-02-04T08:07:57.008Z,101523.34
2023-02-04T08:10:25.640Z,101523.41
2023-02-04T08:12:52.440Z,101517.06
2023-02-04T08:15:19.619Z,101522.94
2023-02-04T08:17:46.755Z,101531.56
2023-02-04T08:20:13.658Z,101535.88
2023-02-04T08:22:41.861Z,101551.78
2023-02-04T08:25:10.765Z,101548.91
2023-02-04T08:27:37.688Z,101555.25
2023-02-04T08:30:06.816Z,101548.41
2023-02-04T08:32:33.822Z,101550.50
2023-02-04T08:35:01.437Z,101549.34
2023-02-04T08:37:28.290Z,101555.16
2023-02-04T08:39:56.604Z,101550.31
2023-02-04T08:42:23.592Z,101552.06
2023-02-04T08:44:50.557Z,101558.06
2023-02-04T08:47:17.478Z,101567.56
2023-02-04T08:49:44.320Z,101569.94
2023-02-04T08:52:11.200Z,101574.16
2023-02-04T08:54:37.970Z,101575.41
2023-02-04T08:57:06.099Z,101580.88
2023-02-04T08:59:33.170Z,101580.44
2023-02-04T09:02:00.125Z,101588.63
2023-02-04T09:04:27.211Z,101585.19
2023-02-04T09:06:54.434Z,101584.81
2023-02-04T09:09:23.007Z,101592.44
2023-02-04T09:11:50.642Z,101593.94
2023-02-04T09:14:18.986Z,101594.19
2023-02-04T09:16:46.043Z,101610.03
2023-02-04T09:19:13.318Z,101600.78
2023-02-04T09:21:40.092Z,101610.97
2023-02-04T09:24:07.925Z,101609.06
2023-02-04T09:26:34.822Z,101611.84
2023-02-04T09:29:01.956Z,101619.03
2023-02-04T09:31:30.243Z,101611.16
2023-02-04T09:33:57.230Z,101615.94
2023-02-04T09:36:24.193Z,101623.78
2023-02-04T09:38:51.013Z,101627.56
2023-02-04T09:41:17.878Z,101629.31
2023-02-04T09:43:45.732Z,101633.41
2023-02-04T09:46:20.397Z,101630.78
2023-02-04T09:48:49.763Z,101629.94
2023-02-04T09:51:21.504Z,101640.66
2023-02-04T09:53:50.652Z,101640.56
2023-02-04T09:56:17.554Z,101638.31
2023-02-04T09:58:44.494Z,101644.69
2023-02-04T10:01:16.741Z,101635.03
2023-02-04T10:03:48.407Z,101639.78
2023-02-04T10:06:17.475Z,101635.13
2023-02-04T10:08:48.996Z,101631.69
2023-02-04T10:11:20.080Z,101635.97
2023-02-04T10:13:50.304Z,101638.56
2023-02-04T10:16:22.719Z,101628.91
2023-02-04T10:18:51.213Z,101636.25
2023-02-04T10:21:24.529Z,101626.88
2023-02-04T10:23:56.429Z,101635.53
2023-02-04T10:26:27.226Z,101638.69
2023-02-04T10:28:59.815Z,101630.97
2023-02-04T10:31:37.095Z,101631.94
2023-02-04T10:34:10.849Z,101632.50
2023-02-04T10:36:39.348Z,101637.91
2023-02-04T10:39:11.808Z,101633.69
2023-02-04T10:41:43.974Z,101632.03
2023-02-04T10:44:14.543Z,101639.50
2023-02-04T10:46:43.196Z,101633.25
2023-02-04T10:49:23.822Z,101628.34
2023-02-04T10:51:52.381Z,101629.88
2023-02-04T10:54:23.404Z,101636.50
2023-02-04T10:56:50.413Z,101634.22
2023-02-04T10:59:24.327Z,101632.81
2023-02-04T11:01:51.442Z,101640.53
2023-02-04T11:04:19.584Z,101640.09
2023-02-04T11:06:46.539Z,101642.66
2023-02-04T11:09:15.125Z,101637.78
2023-02-04T11:11:47.120Z,101643.66
2023-02-04T11:14:27.808Z,101646.44
2023-02-04T11:16:57.128Z,101643.22
2023-02-04T11:19:38.479Z,101642.91
2023-02-04T11:22:22.218Z,101635.44
2023-02-04T11:24:49.784Z,101631.31
2023-02-04T11:27:24.527Z,101636.41
2023-02-04T11:29:52.340Z,101632.69
2023-02-04T11:32:39.980Z,101633.69
2023-02-04T11:35:25.956Z,101634.94
2023-02-04T11:37:54.566Z,101637.53
2023-02-04T11:40:28.057Z,101643.88
2023-02-04T11:43:02.134Z,101649.72
2023-02-04T11:45:33.820Z,101640.16
2023-02-04T11:48:10.396Z,101636.97
2023-02-04T11:50:39.347Z,101638.16
2023-02-04T11:53:06.293Z,101639.50
2023-02-04T11:55:42.743Z,101644.50
2023-02-04T11:58:15.713Z,101650.31
2023-02-04T12:00:43.013Z,101648.47
2023-02-04T12:03:24.510Z,101652.00
2023-02-04T12:05:53.746Z,101649.00
2023-02-04T12:08:33.079Z,101655.41
2023-02-04T12:11:06.219Z,101655.06
2023-02-04T12:13:34.505Z,101653.38
2023-02-04T12:16:04.622Z,101662.50
2023-02-04T12:18:34.774Z,101654.19
2023-02-04T12:21:03.319Z,101657.25
2023-02-04T12:23:30.967Z,101656.84
2023-02-04T12:25:57.921Z,101665.09
2023-02-04T12:28:25.173Z,101663.56
2023-02-04T12:30:52.119Z,101662.22
2023-02-04T12:33:19.162Z,101651.78
2023-02-04T12:35:46.356Z,101660.03
2023-02-04T12:38:15.555Z,101664.13
2023-02-04T12:40:42.465Z,101664.78
2023-02-04T12:43:09.258Z,101659.38
2023-02-04T12:45:36.216Z,101657.84
2023-02-04T12:48:03.366Z,101652.38
2023-02-04T12:50:30.454Z,101653.59
2023-02-04T12:52:59.679Z,101653.00
2023-02-04T12:55:29.458Z,101653.06
2023-02-04T12:57:56.512Z,101644.59
2023-02-04T13:00:24.089Z,101651.16
2023-02-04T13:02:51.184Z,101654.53
2023-02-04T13:05:18.428Z,101652.69
2023-02-04T13:07:45.867Z,101657.06
2023-02-04T13:10:14.034Z,101646.94
2023-02-04T13:12:42.205Z,101641.00
2023-02-04T13:15:10.194Z,101649.47
2023-02-04T13:17:37.415Z,101647.06
2023-02-04T13:20:05.265Z,101647.25
2023-02-04T13:22:32.411Z,101650.75
2023-02-04T13:24:59.562Z,101645.13
2023-02-04T13:27:27.060Z,101655.28
2023-02-04T13:29:55.180Z,101652.16
2023-02-04T13:32:22.138Z,101653.81
2023-02-04T13:34:49.000Z,101654.38
2023-02-04T13:37:16.152Z,101655.53
2023-02-04T13:39:43.405Z,101670.44
2023-02-04T13:42:10.250Z,101669.94
2023-02-04T13:44:37.009Z,101674.66
2023-02-04T13:47:05.621Z,101670.75
2023-02-04T13:49:32.485Z,101662.09
2023-02-04T13:51:59.334Z,101666.75
2023-02-04T13:54:26.174Z,101667.59
2023-02-04T13:56:53.311Z,101663.88
2023-02-04T13:59:21.054Z,101671.19
2023-02-04T14:01:48.116Z,101661.25
2023-02-04T14:04:16.333Z,101662.44
2023-02-04T14:06:43.185Z,101656.53
2023-02-04T14:09:11.347Z,101661.75
2023-02-04T14:11:39.292Z,101668.19
2023-02-04T14:14:07.027Z,101673.97
2023-02-04T14:16:35.695Z,101664.84
2023-02-04T14:19:03.761Z,101678.69
2023-02-04T14:21:31.973Z,101666.00
2023-02-04T14:23:59.361Z,101677.47
2023-02-04T14:26:26.108Z,101676.53
2023-02-04T14:28:52.972Z,101689.44
2023-02-04T14:31:19.857Z,101683.91
2023-02-04T14:33:48.557Z,101685.13
2023-02-04T14:36:17.128Z,101690.03
2023-02-04T14:38:45.423Z,101682.63
2023-02-04T14:41:12.431Z,101690.09
2023-02-04T14:43:39.283Z,101690.97
2023-02-04T14:46:06.203Z,101697.53
2023-02-04T14:48:33.254Z,101701.25
2023-02-04T14:51:00.092Z,101697.91
2023-02-04T14:53:27.327Z,101700.31
2023-02-04T14:55:55.656Z,101701.16
2023-02-04T14:58:22.484Z,101700.19
2023-02-04T15:00:49.436Z,101700.59
2023-02-04T15:03:16.200Z,101702.16
2023-02-04T15:05:43.179Z,101705.38
2023-02-04T15:08:10.120Z,101702.06
2023-02-04T15:10:37.168Z,101695.56
2023-02-04T15:13:05.542Z,101704.28
2023-02-04T15:15:32.346Z,101707.47
2023-02-04T15:18:00.016Z,101705.66
2023-02-04T15:20:26.834Z,101696.97
2023-02-04T15:22:53.630Z,101714.38
2023-02-04T15:25:20.436Z,101711.78
2023-02-04T15:27:47.291Z,101709.00
2023-02-04T15:30:17.415Z,101711.78
2023-02-04T15:32:44.637Z,101720.91
2023-02-04T15:35:11.970Z,101722.69
2023-02-04T15:37:39.056Z,101729.78
2023-02-04T15:40:07.093Z,101724.78
2023-02-04T15:42:34.599Z,101726.88
2023-02-04T15:45:01.362Z,101733.28
2023-02-04T15:47:29.581Z,101731.75
2023-02-04T15:49:56.499Z,101731.25
2023-02-04T15:52:25.317Z,101733.53
2023-02-04T15:54:52.863Z,101739.44
2023-02-04T15:57:19.670Z,101738.31
2023-02-04T15:59:46.601Z,101745.09
2023-02-04T16:02:13.622Z,101754.72
2023-02-04T16:04:41.980Z,101748.06
2023-02-04T16:07:08.719Z,101752.75
2023-02-04T16:09:36.032Z,101742.00
2023-02-04T16:12:03.451Z,101744.25
2023-02-04T16:14:30.485Z,101750.03
2023-02-04T16:16:57.558Z,101753.00
2023-02-04T16:19:24.413Z,101754.84
2023-02-04T16:21:52.621Z,101760.91
2023-02-04T16:24:20.111Z,101765.28
2023-02-04T16:26:47.003Z,101764.56
2023-02-04T16:29:13.904Z,101770.06
2023-02-04T16:31:40.846Z,101774.44
2023-02-04T16:34:07.806Z,101777.41
2023-02-04T16:36:34.578Z,101782.34
2023-02-04T16:39:02.833Z,101788.13
2023-02-04T16:41:29.857Z,101781.31
2023-02-04T16:43:56.836Z,101789.22
2023-02-04T16:46:23.676Z,101795.19
2023-02-04T16:48:50.821Z,101796.06
2023-02-04T16:51:17.749Z,101782.66
2023-02-04T16:53:44.639Z,101776.75
2023-02-04T16:56:13.296Z,101791.59
2023-02-04T16:58:40.166Z,101783.66
2023-02-04T17:01:07.001Z,101789.47
2023-02-04T17:03:35.214Z,101779.94
2023-02-04T17:06:02.151Z,101798.19
2023-02-04T17:08:29.296Z,101792.09
2023-02-04T17:10:57.383Z,101801.00
2023-02-04T17:13:25.605Z,101805.78
2023-02-04T17:15:53.038Z,101806.34
2023-02-04T17:18:19.987Z,101797.00
2023-02-04T17:20:46.935Z,101804.06
2023-02-04T17:23:13.956Z,101805.88
2023-02-04T17:25:40.866Z,101814.78
2023-02-04T17:28:07.757Z,101812.50
2023-02-04T17:30:36.228Z,101807.41
2023-02-04T17:33:03.272Z,101816.66
2023-02-04T17:35:30.798Z,101815.53
2023-02-04T17:37:57.903Z,101807.88
2023-02-04T17:40:25.082Z,101814.22
2023-02-04T17:42:51.904Z,101812.28
2023-02-04T17:45:18.928Z,101822.97
2023-02-04T17:47:47.295Z,101813.28
2023-02-04T17:50:14.049Z,101821.78
2023-02-04T17:52:41.130Z,101821.66
2023-02-04T17:55:20.241Z,101825.16
2023-02-04T17:57:47.098Z,101831.78
2023-02-04T18:00:18.618Z,101828.75
2023-02-04T18:02:49.852Z,101823.28
2023-02-04T18:05:21.036Z,101827.81
2023-02-04T18:07:58.789Z,101839.50
2023-02-04T18:10:33.039Z,101833.41
2023-02-04T18:13:09.932Z,101826.59
2023-02-04T18:15:37.677Z,101832.47
2023-02-04T18:18:20.255Z,101826.53
2023-02-04T18:20:56.056Z,101835.28
2023-02-04T18:23:22.963Z,101827.34
2023-02-04T18:25:49.760Z,101830.88
2023-02-04T18:28:19.604Z,101831.84
2023-02-04T18:30:50.886Z,101831.25
2023-02-04T18:33:23.288Z,101828.56
2023-02-04T18:35:51.814Z,101829.41
2023-02-04T18:38:25.411Z,101829.66
2023-02-04T18:41:02.493Z,101826.41
2023-02-04T18:43:36.222Z,101823.09
2023-02-04T18:46:22.220Z,101822.59
2023-02-04T18:49:01.537Z,101820.75
2023-02-04T18:51:39.250Z,101825.75
2023-02-04T18:54:27.973Z,101830.53
2023-02-04T18:57:17.151Z,101837.94
2023-02-04T18:59:44.133Z,101834.78
2023-02-04T19:02:35.709Z,101836.97
2023-02-04T19:05:22.814Z,101844.50
2023-02-04T19:07:49.677Z,101841.22
2023-02-04T19:10:33.686Z,101842.25
2023-02-04T19:13:19.739Z,101832.47
2023-02-04T19:16:04.981Z,101839.19
2023-02-04T19:18:37.271Z,101843.19
2023-02-04T19:21:25.957Z,101835.47
2023-02-04T19:24:01.660Z,101839.13
2023-02-04T19:26:35.091Z,101838.53
2023-02-04T19:29:40.825Z,101854.44
2023-02-04T19:32:23.886Z,101853.09
2023-02-04T19:34:52.763Z,101848.84
2023-02-04T19:37:24.919Z,101847.44
2023-02-04T19:39:54.436Z,101834.50
2023-02-04T19:42:32.893Z,101845.44
2023-02-04T19:45:12.719Z,101841.19
2023-02-04T19:47:42.813Z,101847.88
2023-02-04T19:50:24.845Z,101844.69
2023-02-04T19:52:56.713Z,101845.78
2023-02-04T19:55:32.002Z,101847.84
2023-02-04T19:58:10.385Z,101850.03
2023-02-04T20:00:49.443Z,101849.91
2023-02-04T20:03:39.796Z,101852.94
2023-02-04T20:06:31.311Z,101857.25
2023-02-04T20:09:06.357Z,101858.59
2023-02-04T20:11:56.067Z,101856.94
2023-02-04T20:14:36.838Z,101856.38
2023-02-04T20:17:19.725Z,101859.50
2023-02-04T20:19:47.536Z,101859.66
2023-02-04T20:22:52.393Z,101861.53
2023-02-04T20:25:37.187Z,101856.94
2023-02-04T20:28:17.504Z,101862.75
2023-02-04T20:30:45.069Z,101864.97
2023-02-04T20:33:25.609Z,101864.75
2023-02-04T20:36:37.129Z,101871.31
2023-02-04T20:39:35.755Z,101874.09
2023-02-04T20:42:37.580Z,101873.97
2023-02-04T20:45:32.792Z,101877.97
2023-02-04T20:48:22.687Z,101876.47
2023-02-04T20:50:51.257Z,101875.22
2023-02-04T20:53:26.548Z,101882.13
2023-02-04T20:55:58.148Z,101878.59
2023-02-04T20:58:28.499Z,101891.06
2023-02-04T21:00:55.762Z,101887.00
2023-02-04T21:03:28.716Z,101894.56
2023-02-04T21:05:59.540Z,101896.66
2023-02-04T21:08:35.674Z,101893.53
2023-02-04T21:11:05.294Z,101897.34
2023-02-04T21:13:32.793Z,101899.91
2023-02-04T21:15:59.973Z,101898.69
2023-02-04T21:18:28.545Z,101893.69
2023-02-04T21:21:06.732Z,101904.38
2023-02-04T21:23:43.170Z,101897.00
2023-02-04T21:26:19.302Z,101901.25
2023-02-04T21:29:09.373Z,101904.56
2023-02-04T21:31:36.474Z,101899.09
2023-02-04T21:34:08.008Z,101904.78
2023-02-04T21:36:35.289Z,101911.06
2023-02-04T21:39:02.428Z,101907.91
2023-02-04T21:41:29.445Z,101908.03
2023-02-04T21:43:58.275Z,101908.84
2023-02-04T21:46:31.865Z,101906.94
2023-02-04T21:48:58.795Z,101900.63
2023-02-04T21:51:27.040Z,101897.22
2023-02-04T21:53:53.872Z,101903.63
2023-02-04T21:56:20.755Z,101907.81
2023-02-04T21:58:47.508Z,101900.13
2023-02-04T22:01:17.047Z,101900.06
2023-02-04T22:06:37.852Z,101898.88
2023-02-04T22:09:04.775Z,101900.81
2023-02-04T22:11:31.527Z,101898.03
2023-02-04T22:14:04.035Z,101893.44
2023-02-04T22:16:34.239Z,101900.47
2023-02-04T22:19:01.493Z,101895.88
2023-02-04T22:21:28.489Z,101882.38
2023-02-04T22:23:56.588Z,101888.72
2023-02-04T22:26:23.357Z,101874.66
2023-02-04T22:28:50.087Z,101889.91
2023-02-04T22:31:17.162Z,101882.91
2023-02-04T22:33:43.939Z,101889.84
2023-02-04T22:36:10.680Z,101884.47
2023-02-04T22:38:37.627Z,101889.03
2023-02-04T22:41:06.023Z,101891.78
2023-02-04T22:43:33.164Z,101884.66
2023-02-04T22:46:00.132Z,101893.59
2023-02-04T22:48:27.067Z,101899.94
2023-02-04T22:50:53.868Z,101904.72
2023-02-04T22:53:23.184Z,101910.56
2023-02-04T22:55:50.368Z,101914.09
2023-02-04T22:58:18.492Z,101902.22
2023-02-04T23:00:46.806Z,101911.44
2023-02-04T23:03:13.626Z,101907.94
2023-02-04T23:05:41.994Z,101906.94
2023-02-04T23:08:09.367Z,101903.19
2023-02-04T23:10:38.951Z,101894.94
2023-02-04T23:13:12.723Z,101892.34
2023-02-04T23:15:44.214Z,101904.03
2023-02-04T23:18:13.176Z,101912.91
2023-02-04T23:20:41.117Z,101903.03
2023-02-04T23:23:09.440Z,101913.38
2023-02-04T23:25:36.790Z,101909.72
2023-02-04T23:28:10.338Z,101903.75
2023-02-04T23:30:39.966Z,101910.06
2023-02-04T23:33:13.829Z,101922.31
2023-02-04T23:35:49.209Z,101922.81
2023-02-04T23:38:16.838Z,101913.69
2023-02-04T23:40:58.278Z,101909.25
2023-02-04T23:43:41.653Z,101899.91
2023-02-04T23:46:20.474Z,101903.13
2023-02-04T23:48:50.260Z,101904.25
2023-02-04T23:51:17.312Z,101898.56
2023-02-04T23:53:44.133Z,101902.97
2023-02-04T23:56:11.043Z,101896.34
2023-02-04T23:58:37.825Z,101906.47
